KMBL/MBL METAR and TAF weather

Enter ICAO airport designator
Station Type Date Time Source
KMBL METAR 2019/08/22 06:56 UTC NOAA

KMBL 220656Z AUTO 00000KT 10SM CLR 12/11 A3001 RMK AO2 SLP163 T01170106 PNO $


Station Type Date Time Source
KMBL Decoded METAR 2019/08/22 06:56 UTC NOAA

Station name not available
Aug 22, 2019 - 02:56 AM EDT / 2019.08.22 0656 UTC
Wind: Calm:0
Visibility: 10 mile(s):0
Sky conditions: clear
Temperature: 53.1 F (11.7 C)
Dew Point: 51.1 F (10.6 C)
Relative Humidity: 92%
Pressure (altimeter): 30.01 in. Hg (1016 hPa)
ob: KMBL 220656Z AUTO 00000KT 10SM CLR 12/11 A3001 RMK AO2 SLP163 T01170106 PNO
cycle: 7

Station Type Date Time Source
KMBL TAF 2019/08/22 06:24 UTC NOAA

TAF KMBL 220520Z 2206/2306 05005KT P6SM SCT250
FM221000 10003KT P6SM SKC
FM221600 35008KT P6SM SCT050
FM221800 34008KT P6SM BKN060
FM222300 33004KT P6SM SCT070
FM230100 02003KT P6SM SKC

Example: see airport list